sensor_id;sensor_type;location;lat;lon;timestamp;temperature;humidity
16736;DHT22;17990;49.548;9.730;2022-10-16T00:01:07;15.30;99.90
16736;DHT22;17990;49.548;9.730;2022-10-16T00:03:36;15.30;99.90
16736;DHT22;17990;49.548;9.730;2022-10-16T00:06:04;15.20;99.90
16736;DHT22;17990;49.548;9.730;2022-10-16T00:08:32;15.10;99.90
16736;DHT22;17990;49.548;9.730;2022-10-16T00:11:03;15.10;99.90
16736;DHT22;17990;49.548;9.730;2022-10-16T00:13:33;15.10;99.90
16736;DHT22;17990;49.548;9.730;2022-10-16T00:16:02;15.10;99.90
16736;DHT22;17990;49.548;9.730;2022-10-16T00:18:29;15.10;99.90
16736;DHT22;17990;49.548;9.730;2022-10-16T00:21:02;15.10;99.90
16736;DHT22;17990;49.548;9.730;2022-10-16T00:23:29;15.10;99.90
16736;DHT22;17990;49.548;9.730;2022-10-16T00:25:57;15.10;99.90
16736;DHT22;17990;49.548;9.730;2022-10-16T00:28:27;15.00;99.90
16736;DHT22;17990;49.548;9.730;2022-10-16T00:30:55;15.00;99.90
16736;DHT22;17990;49.548;9.730;2022-10-16T00:33:22;15.00;99.90
16736;DHT22;17990;49.548;9.730;2022-10-16T00:35:50;15.00;99.90
16736;DHT22;17990;49.548;9.730;2022-10-16T00:38:17;15.00;99.90
16736;DHT22;17990;49.548;9.730;2022-10-16T00:40:44;15.00;99.90
16736;DHT22;17990;49.548;9.730;2022-10-16T00:46:08;15.00;99.90
16736;DHT22;17990;49.548;9.730;2022-10-16T00:48:38;15.00;99.90
16736;DHT22;17990;49.548;9.730;2022-10-16T00:51:06;15.00;99.90
16736;DHT22;17990;49.548;9.730;2022-10-16T00:53:34;14.90;99.90
16736;DHT22;17990;49.548;9.730;2022-10-16T00:56:01;14.80;99.90
16736;DHT22;17990;49.548;9.730;2022-10-16T00:58:29;14.80;99.90
16736;DHT22;17990;49.548;9.730;2022-10-16T01:00:57;14.80;99.90
16736;DHT22;17990;49.548;9.730;2022-10-16T01:03:27;14.80;99.90
16736;DHT22;17990;49.548;9.730;2022-10-16T01:06:04;14.90;99.90
16736;DHT22;17990;49.548;9.730;2022-10-16T01:08:39;14.90;99.90
16736;DHT22;17990;49.548;9.730;2022-10-16T01:11:19;14.90;99.90
16736;DHT22;17990;49.548;9.730;2022-10-16T01:13:53;14.90;99.90
16736;DHT22;17990;49.548;9.730;2022-10-16T01:16:31;14.90;99.90
16736;DHT22;17990;49.548;9.730;2022-10-16T01:19:07;14.90;99.90
16736;DHT22;17990;49.548;9.730;2022-10-16T01:21:39;14.90;99.90
16736;DHT22;17990;49.548;9.730;2022-10-16T01:24:14;14.90;99.90
16736;DHT22;17990;49.548;9.730;2022-10-16T01:27:09;14.90;99.90
16736;DHT22;17990;49.548;9.730;2022-10-16T01:29:42;14.80;99.90
16736;DHT22;17990;49.548;9.730;2022-10-16T01:32:17;14.70;99.90
16736;DHT22;17990;49.548;9.730;2022-10-16T01:34:52;14.70;99.90
16736;DHT22;17990;49.548;9.730;2022-10-16T01:37:25;14.70;99.90
16736;DHT22;17990;49.548;9.730;2022-10-16T01:39:59;14.70;99.90
16736;DHT22;17990;49.548;9.730;2022-10-16T01:42:32;14.70;99.90
16736;DHT22;17990;49.548;9.730;2022-10-16T01:45:02;14.70;99.90
16736;DHT22;17990;49.548;9.730;2022-10-16T01:47:33;14.80;99.90
16736;DHT22;17990;49.548;9.730;2022-10-16T01:50:04;14.80;99.90
16736;DHT22;17990;49.548;9.730;2022-10-16T01:52:35;14.80;99.90
16736;DHT22;17990;49.548;9.730;2022-10-16T01:55:06;14.90;99.90
16736;DHT22;17990;49.548;9.730;2022-10-16T01:57:40;14.90;99.90
16736;DHT22;17990;49.548;9.730;2022-10-16T02:00:11;15.00;99.90
16736;DHT22;17990;49.548;9.730;2022-10-16T02:02:41;15.00;99.90
16736;DHT22;17990;49.548;9.730;2022-10-16T02:05:15;15.00;99.90
16736;DHT22;17990;49.548;9.730;2022-10-16T02:07:45;15.10;99.90
16736;DHT22;17990;49.548;9.730;2022-10-16T02:10:12;15.00;99.90
16736;DHT22;17990;49.548;9.730;2022-10-16T02:12:44;15.00;99.90
16736;DHT22;17990;49.548;9.730;2022-10-16T02:15:13;14.90;99.90
16736;DHT22;17990;49.548;9.730;2022-10-16T02:17:40;15.00;99.90
16736;DHT22;17990;49.548;9.730;2022-10-16T02:20:07;15.00;99.90
16736;DHT22;17990;49.548;9.730;2022-10-16T02:22:38;15.00;99.90
16736;DHT22;17990;49.548;9.730;2022-10-16T02:25:10;15.10;99.90
16736;DHT22;17990;49.548;9.730;2022-10-16T02:27:43;15.10;99.90
16736;DHT22;17990;49.548;9.730;2022-10-16T02:30:19;15.10;99.90
16736;DHT22;17990;49.548;9.730;2022-10-16T02:32:50;15.20;99.90
16736;DHT22;17990;49.548;9.730;2022-10-16T02:35:21;15.20;99.90
16736;DHT22;17990;49.548;9.730;2022-10-16T02:37:50;15.30;99.90
16736;DHT22;17990;49.548;9.730;2022-10-16T02:40:18;15.30;99.90
16736;DHT22;17990;49.548;9.730;2022-10-16T02:42:50;15.30;99.90
16736;DHT22;17990;49.548;9.730;2022-10-16T02:45:18;15.30;99.90
16736;DHT22;17990;49.548;9.730;2022-10-16T02:47:45;15.30;99.90
16736;DHT22;17990;49.548;9.730;2022-10-16T02:50:12;15.30;99.90
16736;DHT22;17990;49.548;9.730;2022-10-16T02:52:39;15.30;99.90
16736;DHT22;17990;49.548;9.730;2022-10-16T02:55:06;15.30;99.90
16736;DHT22;17990;49.548;9.730;2022-10-16T02:57:34;15.30;99.90
16736;DHT22;17990;49.548;9.730;2022-10-16T03:00:05;15.30;99.90
16736;DHT22;17990;49.548;9.730;2022-10-16T03:02:33;15.30;99.90
16736;DHT22;17990;49.548;9.730;2022-10-16T03:05:00;15.30;99.90
16736;DHT22;17990;49.548;9.730;2022-10-16T03:07:27;15.30;99.90
16736;DHT22;17990;49.548;9.730;2022-10-16T03:09:54;15.30;99.90
16736;DHT22;17990;49.548;9.730;2022-10-16T03:12:21;15.30;99.90
16736;DHT22;17990;49.548;9.730;2022-10-16T03:14:48;15.30;99.90
16736;DHT22;17990;49.548;9.730;2022-10-16T03:17:16;15.20;99.90
16736;DHT22;17990;49.548;9.730;2022-10-16T03:19:43;15.10;99.90
16736;DHT22;17990;49.548;9.730;2022-10-16T03:22:10;15.10;99.90
16736;DHT22;17990;49.548;9.730;2022-10-16T03:24:37;15.10;99.90
16736;DHT22;17990;49.548;9.730;2022-10-16T03:27:04;15.00;99.90
16736;DHT22;17990;49.548;9.730;2022-10-16T03:29:31;15.00;99.90
16736;DHT22;17990;49.548;9.730;2022-10-16T03:31:58;15.00;99.90
16736;DHT22;17990;49.548;9.730;2022-10-16T03:34:27;15.00;99.90
16736;DHT22;17990;49.548;9.730;2022-10-16T03:36:54;15.00;99.90
16736;DHT22;17990;49.548;9.730;2022-10-16T03:39:21;14.90;99.90
16736;DHT22;17990;49.548;9.730;2022-10-16T03:41:48;14.90;99.90
16736;DHT22;17990;49.548;9.730;2022-10-16T03:44:15;14.90;99.90
16736;DHT22;17990;49.548;9.730;2022-10-16T03:46:42;14.90;99.90
16736;DHT22;17990;49.548;9.730;2022-10-16T03:49:09;14.80;99.90
16736;DHT22;17990;49.548;9.730;2022-10-16T03:51:37;14.80;99.90
16736;DHT22;17990;49.548;9.730;2022-10-16T03:54:04;14.80;99.90
16736;DHT22;17990;49.548;9.730;2022-10-16T03:56:31;14.80;99.90
16736;DHT22;17990;49.548;9.730;2022-10-16T03:58:58;14.80;99.90
16736;DHT22;17990;49.548;9.730;2022-10-16T04:01:25;14.80;99.90
16736;DHT22;17990;49.548;9.730;2022-10-16T04:03:52;14.70;99.90
16736;DHT22;17990;49.548;9.730;2022-10-16T04:06:19;14.70;99.90
16736;DHT22;17990;49.548;9.730;2022-10-16T04:08:47;14.70;99.90
16736;DHT22;17990;49.548;9.730;2022-10-16T04:11:14;14.70;99.90
16736;DHT22;17990;49.548;9.730;2022-10-16T04:13:41;14.70;99.90
16736;DHT22;17990;49.548;9.730;2022-10-16T04:16:08;14.60;99.90
16736;DHT22;17990;49.548;9.730;2022-10-16T04:18:35;14.60;99.90
16736;DHT22;17990;49.548;9.730;2022-10-16T04:21:03;14.70;99.90
16736;DHT22;17990;49.548;9.730;2022-10-16T04:23:30;14.70;99.90
16736;DHT22;17990;49.548;9.730;2022-10-16T04:25:58;14.70;99.90
16736;DHT22;17990;49.548;9.730;2022-10-16T04:28:26;14.70;99.90
16736;DHT22;17990;49.548;9.730;2022-10-16T04:30:54;14.70;99.90
16736;DHT22;17990;49.548;9.730;2022-10-16T04:33:21;14.70;99.90
16736;DHT22;17990;49.548;9.730;2022-10-16T04:35:48;14.70;99.90
16736;DHT22;17990;49.548;9.730;2022-10-16T04:38:15;14.60;99.90
16736;DHT22;17990;49.548;9.730;2022-10-16T04:40:42;14.60;99.90
16736;DHT22;17990;49.548;9.730;2022-10-16T04:43:10;14.60;99.90
16736;DHT22;17990;49.548;9.730;2022-10-16T04:45:37;14.60;99.90
16736;DHT22;17990;49.548;9.730;2022-10-16T04:48:04;14.50;99.90
16736;DHT22;17990;49.548;9.730;2022-10-16T04:50:31;14.50;99.90
16736;DHT22;17990;49.548;9.730;2022-10-16T04:52:58;14.50;99.90
16736;DHT22;17990;49.548;9.730;2022-10-16T04:55:25;14.50;99.90
16736;DHT22;17990;49.548;9.730;2022-10-16T04:57:52;14.50;99.90
16736;DHT22;17990;49.548;9.730;2022-10-16T05:00:21;14.50;99.90
16736;DHT22;17990;49.548;9.730;2022-10-16T05:02:49;14.50;99.90
16736;DHT22;17990;49.548;9.730;2022-10-16T05:05:16;14.50;99.90
16736;DHT22;17990;49.548;9.730;2022-10-16T05:07:44;14.40;99.90
16736;DHT22;17990;49.548;9.730;2022-10-16T05:10:11;14.40;99.90
16736;DHT22;17990;49.548;9.730;2022-10-16T05:12:38;14.50;99.90
16736;DHT22;17990;49.548;9.730;2022-10-16T05:15:06;14.40;99.90
16736;DHT22;17990;49.548;9.730;2022-10-16T05:17:35;14.40;99.90
16736;DHT22;17990;49.548;9.730;2022-10-16T05:20:03;14.40;99.90
16736;DHT22;17990;49.548;9.730;2022-10-16T05:22:30;14.50;99.90
16736;DHT22;17990;49.548;9.730;2022-10-16T05:24:57;14.40;99.90
16736;DHT22;17990;49.548;9.730;2022-10-16T05:27:24;14.40;99.90
16736;DHT22;17990;49.548;9.730;2022-10-16T05:29:51;14.40;99.90
16736;DHT22;17990;49.548;9.730;2022-10-16T05:32:18;14.40;99.90
16736;DHT22;17990;49.548;9.730;2022-10-16T05:34:46;14.40;99.90
16736;DHT22;17990;49.548;9.730;2022-10-16T05:37:13;14.40;99.90
16736;DHT22;17990;49.548;9.730;2022-10-16T05:39:40;14.40;99.90
16736;DHT22;17990;49.548;9.730;2022-10-16T05:42:07;14.40;99.90
16736;DHT22;17990;49.548;9.730;2022-10-16T05:44:34;14.40;99.90
16736;DHT22;17990;49.548;9.730;2022-10-16T05:47:01;14.40;99.90
16736;DHT22;17990;49.548;9.730;2022-10-16T05:49:28;14.40;99.90
16736;DHT22;17990;49.548;9.730;2022-10-16T05:51:56;14.40;99.90
16736;DHT22;17990;49.548;9.730;2022-10-16T05:54:23;14.40;99.90
16736;DHT22;17990;49.548;9.730;2022-10-16T05:56:50;14.50;99.90
16736;DHT22;17990;49.548;9.730;2022-10-16T05:59:17;14.50;99.90
16736;DHT22;17990;49.548;9.730;2022-10-16T06:01:44;14.50;99.90
16736;DHT22;17990;49.548;9.730;2022-10-16T06:04:11;14.50;99.90
16736;DHT22;17990;49.548;9.730;2022-10-16T06:06:37;14.50;99.90
16736;DHT22;17990;49.548;9.730;2022-10-16T06:09:06;14.50;99.90
16736;DHT22;17990;49.548;9.730;2022-10-16T06:11:33;14.40;99.90
16736;DHT22;17990;49.548;9.730;2022-10-16T06:14:01;14.40;99.90
16736;DHT22;17990;49.548;9.730;2022-10-16T06:16:32;14.40;99.90
16736;DHT22;17990;49.548;9.730;2022-10-16T06:19:00;14.50;99.90
16736;DHT22;17990;49.548;9.730;2022-10-16T06:21:28;14.50;99.90
16736;DHT22;17990;49.548;9.730;2022-10-16T06:23:56;14.50;99.90
16736;DHT22;17990;49.548;9.730;2022-10-16T06:26:27;14.50;99.90
16736;DHT22;17990;49.548;9.730;2022-10-16T06:28:55;14.60;99.90
16736;DHT22;17990;49.548;9.730;2022-10-16T06:31:23;14.60;99.90
16736;DHT22;17990;49.548;9.730;2022-10-16T06:33:53;14.60;99.90
16736;DHT22;17990;49.548;9.730;2022-10-16T06:36:21;14.60;99.90
16736;DHT22;17990;49.548;9.730;2022-10-16T06:38:48;14.60;99.90
16736;DHT22;17990;49.548;9.730;2022-10-16T06:41:17;14.60;99.90
16736;DHT22;17990;49.548;9.730;2022-10-16T06:43:47;14.60;99.90
16736;DHT22;17990;49.548;9.730;2022-10-16T06:46:16;14.60;99.90
16736;DHT22;17990;49.548;9.730;2022-10-16T06:48:44;14.60;99.90
16736;DHT22;17990;49.548;9.730;2022-10-16T06:51:13;14.60;99.90
16736;DHT22;17990;49.548;9.730;2022-10-16T06:53:42;14.70;99.90
16736;DHT22;17990;49.548;9.730;2022-10-16T06:56:11;14.70;99.90
16736;DHT22;17990;49.548;9.730;2022-10-16T06:58:40;14.70;99.90
16736;DHT22;17990;49.548;9.730;2022-10-16T07:01:09;14.90;99.90
16736;DHT22;17990;49.548;9.730;2022-10-16T07:03:37;14.90;99.90
16736;DHT22;17990;49.548;9.730;2022-10-16T07:06:06;15.00;99.90
16736;DHT22;17990;49.548;9.730;2022-10-16T07:08:37;15.00;99.90
16736;DHT22;17990;49.548;9.730;2022-10-16T07:11:06;15.00;99.90
16736;DHT22;17990;49.548;9.730;2022-10-16T07:13:34;15.00;99.90
16736;DHT22;17990;49.548;9.730;2022-10-16T07:16:04;15.00;99.90
16736;DHT22;17990;49.548;9.730;2022-10-16T07:18:34;14.90;99.90
16736;DHT22;17990;49.548;9.730;2022-10-16T07:21:06;14.90;99.90
16736;DHT22;17990;49.548;9.730;2022-10-16T07:23:34;14.90;99.90
16736;DHT22;17990;49.548;9.730;2022-10-16T07:26:01;15.00;99.90
16736;DHT22;17990;49.548;9.730;2022-10-16T07:28:28;15.00;99.90
16736;DHT22;17990;49.548;9.730;2022-10-16T07:30:55;15.10;99.90
16736;DHT22;17990;49.548;9.730;2022-10-16T07:33:22;15.10;99.90
16736;DHT22;17990;49.548;9.730;2022-10-16T07:35:52;15.20;99.90
16736;DHT22;17990;49.548;9.730;2022-10-16T07:38:20;15.30;99.90
16736;DHT22;17990;49.548;9.730;2022-10-16T07:40:48;15.40;99.90
16736;DHT22;17990;49.548;9.730;2022-10-16T07:43:21;15.40;99.90
16736;DHT22;17990;49.548;9.730;2022-10-16T07:45:49;15.60;99.90
16736;DHT22;17990;49.548;9.730;2022-10-16T07:48:17;15.70;99.90
16736;DHT22;17990;49.548;9.730;2022-10-16T07:50:45;15.80;99.90
16736;DHT22;17990;49.548;9.730;2022-10-16T07:53:14;15.80;99.90
16736;DHT22;17990;49.548;9.730;2022-10-16T07:55:41;15.80;99.90
16736;DHT22;17990;49.548;9.730;2022-10-16T07:58:08;15.80;99.90
16736;DHT22;17990;49.548;9.730;2022-10-16T08:00:36;15.90;99.90
16736;DHT22;17990;49.548;9.730;2022-10-16T08:03:03;16.10;99.90
16736;DHT22;17990;49.548;9.730;2022-10-16T08:05:32;16.30;99.90
16736;DHT22;17990;49.548;9.730;2022-10-16T08:08:00;16.50;99.90
16736;DHT22;17990;49.548;9.730;2022-10-16T08:10:29;16.70;99.90
16736;DHT22;17990;49.548;9.730;2022-10-16T08:12:57;17.00;99.90
16736;DHT22;17990;49.548;9.730;2022-10-16T08:15:25;17.40;99.90
16736;DHT22;17990;49.548;9.730;2022-10-16T08:17:56;17.70;99.90
16736;DHT22;17990;49.548;9.730;2022-10-16T08:20:24;17.90;99.90
16736;DHT22;17990;49.548;9.730;2022-10-16T08:22:52;18.00;99.90
16736;DHT22;17990;49.548;9.730;2022-10-16T08:25:19;17.90;99.90
16736;DHT22;17990;49.548;9.730;2022-10-16T08:27:48;17.90;99.90
16736;DHT22;17990;49.548;9.730;2022-10-16T08:30:17;17.80;99.90
16736;DHT22;17990;49.548;9.730;2022-10-16T08:32:44;17.70;99.90
16736;DHT22;17990;49.548;9.730;2022-10-16T08:35:12;17.70;99.90
16736;DHT22;17990;49.548;9.730;2022-10-16T08:37:40;17.70;99.90
16736;DHT22;17990;49.548;9.730;2022-10-16T08:40:17;17.70;99.90
16736;DHT22;17990;49.548;9.730;2022-10-16T08:43:12;17.80;99.90
16736;DHT22;17990;49.548;9.730;2022-10-16T08:46:04;17.90;99.90
16736;DHT22;17990;49.548;9.730;2022-10-16T08:48:44;17.90;99.90
16736;DHT22;17990;49.548;9.730;2022-10-16T08:51:18;17.80;99.90
16736;DHT22;17990;49.548;9.730;2022-10-16T08:53:52;17.80;99.90
16736;DHT22;17990;49.548;9.730;2022-10-16T08:56:21;18.00;99.90
16736;DHT22;17990;49.548;9.730;2022-10-16T08:58:51;18.10;99.90
16736;DHT22;17990;49.548;9.730;2022-10-16T09:01:21;18.20;99.90
16736;DHT22;17990;49.548;9.730;2022-10-16T09:04:00;18.50;99.90
16736;DHT22;17990;49.548;9.730;2022-10-16T09:06:45;18.80;99.90
16736;DHT22;17990;49.548;9.730;2022-10-16T09:09:27;19.20;99.90
16736;DHT22;17990;49.548;9.730;2022-10-16T09:12:10;19.50;99.90
16736;DHT22;17990;49.548;9.730;2022-10-16T09:14:50;19.80;99.90
16736;DHT22;17990;49.548;9.730;2022-10-16T09:17:39;20.10;99.90
16736;DHT22;17990;49.548;9.730;2022-10-16T09:20:22;20.60;99.90
16736;DHT22;17990;49.548;9.730;2022-10-16T09:23:08;20.80;99.90
16736;DHT22;17990;49.548;9.730;2022-10-16T09:25:43;20.70;99.90
16736;DHT22;17990;49.548;9.730;2022-10-16T09:28:13;20.70;99.90
16736;DHT22;17990;49.548;9.730;2022-10-16T09:30:41;20.60;99.90
16736;DHT22;17990;49.548;9.730;2022-10-16T09:33:10;20.60;99.90
16736;DHT22;17990;49.548;9.730;2022-10-16T09:35:40;20.70;99.90
16736;DHT22;17990;49.548;9.730;2022-10-16T09:38:09;20.60;99.90
16736;DHT22;17990;49.548;9.730;2022-10-16T09:40:47;20.40;99.90
16736;DHT22;17990;49.548;9.730;2022-10-16T09:43:20;20.30;99.90
16736;DHT22;17990;49.548;9.730;2022-10-16T09:45:58;20.20;99.90
16736;DHT22;17990;49.548;9.730;2022-10-16T09:48:30;20.20;99.90
16736;DHT22;17990;49.548;9.730;2022-10-16T09:51:01;20.10;99.90
16736;DHT22;17990;49.548;9.730;2022-10-16T09:53:39;20.20;99.90
16736;DHT22;17990;49.548;9.730;2022-10-16T09:56:09;20.30;99.90
16736;DHT22;17990;49.548;9.730;2022-10-16T09:58:42;20.40;99.90
16736;DHT22;17990;49.548;9.730;2022-10-16T10:01:13;20.70;99.90
16736;DHT22;17990;49.548;9.730;2022-10-16T10:03:42;21.10;99.90
16736;DHT22;17990;49.548;9.730;2022-10-16T10:06:22;21.40;99.90
16736;DHT22;17990;49.548;9.730;2022-10-16T10:09:04;21.70;99.90
16736;DHT22;17990;49.548;9.730;2022-10-16T10:11:40;21.70;99.90
16736;DHT22;17990;49.548;9.730;2022-10-16T10:14:17;21.70;99.90
16736;DHT22;17990;49.548;9.730;2022-10-16T10:17:10;21.80;99.90
16736;DHT22;17990;49.548;9.730;2022-10-16T10:19:41;21.70;99.90
16736;DHT22;17990;49.548;9.730;2022-10-16T10:22:17;21.70;99.90
16736;DHT22;17990;49.548;9.730;2022-10-16T10:24:55;21.90;99.90
16736;DHT22;17990;49.548;9.730;2022-10-16T10:27:26;21.90;99.90
16736;DHT22;17990;49.548;9.730;2022-10-16T10:30:02;21.70;99.90
16736;DHT22;17990;49.548;9.730;2022-10-16T10:32:43;21.30;99.90
16736;DHT22;17990;49.548;9.730;2022-10-16T10:35:20;21.00;99.90
16736;DHT22;17990;49.548;9.730;2022-10-16T10:38:02;20.90;99.90
16736;DHT22;17990;49.548;9.730;2022-10-16T10:40:43;20.70;99.90
16736;DHT22;17990;49.548;9.730;2022-10-16T10:43:26;20.80;99.90
16736;DHT22;17990;49.548;9.730;2022-10-16T10:46:05;20.80;99.90
16736;DHT22;17990;49.548;9.730;2022-10-16T10:48:54;20.90;99.90
16736;DHT22;17990;49.548;9.730;2022-10-16T10:51:38;21.00;99.90
16736;DHT22;17990;49.548;9.730;2022-10-16T10:54:16;21.00;99.90
16736;DHT22;17990;49.548;9.730;2022-10-16T10:56:50;21.00;99.90
16736;DHT22;17990;49.548;9.730;2022-10-16T10:59:54;21.10;99.90
16736;DHT22;17990;49.548;9.730;2022-10-16T11:02:33;21.20;99.90
16736;DHT22;17990;49.548;9.730;2022-10-16T11:05:21;21.20;99.90
16736;DHT22;17990;49.548;9.730;2022-10-16T11:07:58;21.00;99.90
16736;DHT22;17990;49.548;9.730;2022-10-16T11:10:30;20.90;99.90
16736;DHT22;17990;49.548;9.730;2022-10-16T11:13:08;20.80;99.90
16736;DHT22;17990;49.548;9.730;2022-10-16T11:15:50;20.70;99.90
16736;DHT22;17990;49.548;9.730;2022-10-16T11:18:21;20.60;99.90
16736;DHT22;17990;49.548;9.730;2022-10-16T11:20:55;20.70;99.90
16736;DHT22;17990;49.548;9.730;2022-10-16T11:23:26;20.80;99.90
16736;DHT22;17990;49.548;9.730;2022-10-16T11:25:59;20.80;99.90
16736;DHT22;17990;49.548;9.730;2022-10-16T11:28:32;20.80;99.90
16736;DHT22;17990;49.548;9.730;2022-10-16T11:31:07;20.80;99.90
16736;DHT22;17990;49.548;9.730;2022-10-16T11:33:39;20.80;99.90
16736;DHT22;17990;49.548;9.730;2022-10-16T11:36:14;20.90;99.90
16736;DHT22;17990;49.548;9.730;2022-10-16T11:38:47;21.00;99.90
16736;DHT22;17990;49.548;9.730;2022-10-16T11:41:23;21.20;99.90
16736;DHT22;17990;49.548;9.730;2022-10-16T11:44:02;21.30;99.90
16736;DHT22;17990;49.548;9.730;2022-10-16T11:46:40;21.20;99.90
16736;DHT22;17990;49.548;9.730;2022-10-16T11:49:14;21.20;99.90
16736;DHT22;17990;49.548;9.730;2022-10-16T11:51:48;21.50;99.90
16736;DHT22;17990;49.548;9.730;2022-10-16T11:54:24;21.60;99.90
16736;DHT22;17990;49.548;9.730;2022-10-16T11:56:59;21.70;99.90
16736;DHT22;17990;49.548;9.730;2022-10-16T11:59:33;21.80;99.90
16736;DHT22;17990;49.548;9.730;2022-10-16T12:05:13;21.80;99.90
16736;DHT22;17990;49.548;9.730;2022-10-16T12:07:52;21.70;99.90
16736;DHT22;17990;49.548;9.730;2022-10-16T12:10:28;21.70;99.90
16736;DHT22;17990;49.548;9.730;2022-10-16T12:12:57;21.90;99.90
16736;DHT22;17990;49.548;9.730;2022-10-16T12:15:26;22.00;99.90
16736;DHT22;17990;49.548;9.730;2022-10-16T12:17:53;22.20;99.90
16736;DHT22;17990;49.548;9.730;2022-10-16T12:20:25;22.20;99.90
16736;DHT22;17990;49.548;9.730;2022-10-16T12:22:58;22.20;99.90
16736;DHT22;17990;49.548;9.730;2022-10-16T12:25:30;22.20;99.90
16736;DHT22;17990;49.548;9.730;2022-10-16T12:28:03;22.30;99.90
16736;DHT22;17990;49.548;9.730;2022-10-16T12:30:33;22.20;99.90
16736;DHT22;17990;49.548;9.730;2022-10-16T12:33:03;22.50;99.90
16736;DHT22;17990;49.548;9.730;2022-10-16T12:35:35;22.50;99.90
16736;DHT22;17990;49.548;9.730;2022-10-16T12:38:18;22.50;99.90
16736;DHT22;17990;49.548;9.730;2022-10-16T12:40:55;22.30;99.90
16736;DHT22;17990;49.548;9.730;2022-10-16T12:43:36;22.50;99.90
16736;DHT22;17990;49.548;9.730;2022-10-16T12:46:21;23.00;99.90
16736;DHT22;17990;49.548;9.730;2022-10-16T12:48:50;23.40;99.90
16736;DHT22;17990;49.548;9.730;2022-10-16T12:51:24;23.60;99.90
16736;DHT22;17990;49.548;9.730;2022-10-16T12:54:00;23.60;99.90
16736;DHT22;17990;49.548;9.730;2022-10-16T12:56:38;23.60;99.90
16736;DHT22;17990;49.548;9.730;2022-10-16T12:59:19;23.80;99.90
16736;DHT22;17990;49.548;9.730;2022-10-16T13:02:08;23.70;99.90
16736;DHT22;17990;49.548;9.730;2022-10-16T13:05:11;23.70;99.90
16736;DHT22;17990;49.548;9.730;2022-10-16T13:07:55;23.70;99.90
16736;DHT22;17990;49.548;9.730;2022-10-16T13:10:32;23.60;99.90
16736;DHT22;17990;49.548;9.730;2022-10-16T13:13:27;23.50;99.90
16736;DHT22;17990;49.548;9.730;2022-10-16T13:16:12;23.40;99.90
16736;DHT22;17990;49.548;9.730;2022-10-16T13:18:52;23.10;99.90
16736;DHT22;17990;49.548;9.730;2022-10-16T13:21:33;22.90;99.90
16736;DHT22;17990;49.548;9.730;2022-10-16T13:24:14;22.90;99.90
16736;DHT22;17990;49.548;9.730;2022-10-16T13:26:55;22.80;99.90
16736;DHT22;17990;49.548;9.730;2022-10-16T13:29:24;22.70;99.90
16736;DHT22;17990;49.548;9.730;2022-10-16T13:31:57;22.60;99.90
16736;DHT22;17990;49.548;9.730;2022-10-16T13:34:25;22.60;99.90
16736;DHT22;17990;49.548;9.730;2022-10-16T13:36:53;22.60;99.90
16736;DHT22;17990;49.548;9.730;2022-10-16T13:39:25;22.60;99.90
16736;DHT22;17990;49.548;9.730;2022-10-16T13:42:04;22.60;99.90
16736;DHT22;17990;49.548;9.730;2022-10-16T13:44:37;22.60;99.90
16736;DHT22;17990;49.548;9.730;2022-10-16T13:47:15;22.50;99.90
16736;DHT22;17990;49.548;9.730;2022-10-16T13:49:43;22.50;99.90
16736;DHT22;17990;49.548;9.730;2022-10-16T13:52:18;22.30;99.90
16736;DHT22;17990;49.548;9.730;2022-10-16T13:54:46;22.10;99.90
16736;DHT22;17990;49.548;9.730;2022-10-16T13:57:16;22.10;99.90
16736;DHT22;17990;49.548;9.730;2022-10-16T13:59:43;22.10;99.90
16736;DHT22;17990;49.548;9.730;2022-10-16T14:02:18;22.00;99.90
16736;DHT22;17990;49.548;9.730;2022-10-16T14:04:47;21.90;99.90
16736;DHT22;17990;49.548;9.730;2022-10-16T14:07:20;21.80;99.90
16736;DHT22;17990;49.548;9.730;2022-10-16T14:09:48;21.80;99.90
16736;DHT22;17990;49.548;9.730;2022-10-16T14:12:18;21.70;99.90
16736;DHT22;17990;49.548;9.730;2022-10-16T14:14:46;21.70;99.90
16736;DHT22;17990;49.548;9.730;2022-10-16T14:17:15;21.70;99.90
16736;DHT22;17990;49.548;9.730;2022-10-16T14:19:46;21.80;99.90
16736;DHT22;17990;49.548;9.730;2022-10-16T14:22:28;21.90;99.90
16736;DHT22;17990;49.548;9.730;2022-10-16T14:24:56;21.90;99.90
16736;DHT22;17990;49.548;9.730;2022-10-16T14:27:29;21.80;99.90
16736;DHT22;17990;49.548;9.730;2022-10-16T14:30:14;21.80;99.90
16736;DHT22;17990;49.548;9.730;2022-10-16T14:32:53;21.80;99.90
16736;DHT22;17990;49.548;9.730;2022-10-16T14:35:23;21.80;99.90
16736;DHT22;17990;49.548;9.730;2022-10-16T14:37:52;21.70;99.90
16736;DHT22;17990;49.548;9.730;2022-10-16T14:40:21;21.70;99.90
16736;DHT22;17990;49.548;9.730;2022-10-16T14:42:52;21.70;99.90
16736;DHT22;17990;49.548;9.730;2022-10-16T14:45:21;21.70;99.90
16736;DHT22;17990;49.548;9.730;2022-10-16T14:47:50;21.60;99.90
16736;DHT22;17990;49.548;9.730;2022-10-16T14:50:19;21.50;99.90
16736;DHT22;17990;49.548;9.730;2022-10-16T14:52:46;21.50;99.90
16736;DHT22;17990;49.548;9.730;2022-10-16T14:55:14;21.30;99.90
16736;DHT22;17990;49.548;9.730;2022-10-16T14:57:42;21.20;99.90
16736;DHT22;17990;49.548;9.730;2022-10-16T15:00:16;21.00;99.90
16736;DHT22;17990;49.548;9.730;2022-10-16T15:02:45;20.80;99.90
16736;DHT22;17990;49.548;9.730;2022-10-16T15:05:15;20.70;99.90
16736;DHT22;17990;49.548;9.730;2022-10-16T15:07:44;20.60;99.90
16736;DHT22;17990;49.548;9.730;2022-10-16T15:10:12;20.60;99.90
16736;DHT22;17990;49.548;9.730;2022-10-16T15:12:39;20.50;99.90
16736;DHT22;17990;49.548;9.730;2022-10-16T15:15:35;20.30;99.90
16736;DHT22;17990;49.548;9.730;2022-10-16T15:18:04;20.00;99.90
16736;DHT22;17990;49.548;9.730;2022-10-16T15:20:32;19.80;99.90
16736;DHT22;17990;49.548;9.730;2022-10-16T15:23:01;19.60;99.90
16736;DHT22;17990;49.548;9.730;2022-10-16T15:25:32;19.40;99.90
16736;DHT22;17990;49.548;9.730;2022-10-16T15:28:03;19.30;99.90
16736;DHT22;17990;49.548;9.730;2022-10-16T15:30:32;19.30;99.90
16736;DHT22;17990;49.548;9.730;2022-10-16T15:32:59;19.30;99.90
16736;DHT22;17990;49.548;9.730;2022-10-16T15:35:27;19.30;99.90
16736;DHT22;17990;49.548;9.730;2022-10-16T15:37:54;19.30;99.90
16736;DHT22;17990;49.548;9.730;2022-10-16T15:40:22;19.30;99.90
16736;DHT22;17990;49.548;9.730;2022-10-16T15:42:50;19.30;99.90
16736;DHT22;17990;49.548;9.730;2022-10-16T15:45:17;19.20;99.90
16736;DHT22;17990;49.548;9.730;2022-10-16T15:47:46;19.20;99.90
16736;DHT22;17990;49.548;9.730;2022-10-16T15:50:14;19.20;99.90
16736;DHT22;17990;49.548;9.730;2022-10-16T15:52:41;19.20;99.90
16736;DHT22;17990;49.548;9.730;2022-10-16T15:55:11;19.10;99.90
16736;DHT22;17990;49.548;9.730;2022-10-16T15:57:38;19.10;99.90
16736;DHT22;17990;49.548;9.730;2022-10-16T16:00:09;19.10;99.90
16736;DHT22;17990;49.548;9.730;2022-10-16T16:02:38;19.00;99.90